Time;durP1;ratioP1;P1;durP2;ratioP2;P2;SDS_P1;SDS_P2;PMS_P1;PMS_P2;Temp;Humidity;BMP_temperature;BMP_pressure;BME280_temperature;BME280_humidity;BME280_pressure;Samples;Min_cycle;Max_cycle;Signal;HPM_P1;HPM_P2
2022/05/30 00:00:38;;;;;;;0.20;0.20;;;;;;;20.75;58.51;94425.03;5090002;28;20437;-69
2022/05/30 00:03:06;;;;;;;0.30;0.30;;;;;;;20.78;58.30;94427.81;5090273;28;20445;-69
2022/05/30 00:05:33;;;;;;;0.30;0.30;;;;;;;20.73;58.26;94414.72;5090356;28;20815;-69
2022/05/30 00:08:00;;;;;;;0.30;0.30;;;;;;;20.69;58.67;94427.13;5090269;28;21032;-66
2022/05/30 00:10:28;;;;;;;0.40;0.40;;;;;;;20.87;57.44;94412.56;5090108;28;20433;-68
2022/05/30 00:12:55;;;;;;;0.13;0.13;;;;;;;20.88;57.68;94423.97;5091516;28;20445;-68
2022/05/30 00:15:22;;;;;;;0.43;0.43;;;;;;;20.84;57.25;94423.06;5093613;28;20959;-68
2022/05/30 00:17:54;;;;;;;0.20;0.20;;;;;;;20.99;57.29;94431.22;5091013;28;20429;-64
2022/05/30 00:20:21;;;;;;;0.10;0.10;;;;;;;21.11;56.90;94433.13;5090255;28;20433;-70
2022/05/30 00:22:48;;;;;;;0.33;0.33;;;;;;;20.97;56.93;94425.41;5090440;28;20501;-65
2022/05/30 00:25:15;;;;;;;0.40;0.40;;;;;;;20.66;57.54;94435.00;5089787;28;20476;-63
2022/05/30 00:27:43;;;;;;;0.40;0.40;;;;;;;20.64;57.68;94432.66;5088838;28;20429;-65
2022/05/30 00:30:12;;;;;;;0.37;0.37;;;;;;;20.54;57.77;94430.44;5089334;28;20433;-66
2022/05/30 00:32:39;;;;;;;0.20;0.20;;;;;;;20.34;58.83;94431.25;5089945;28;21026;-69
2022/05/30 00:35:06;;;;;;;0.20;0.20;;;;;;;19.66;61.36;94426.44;5088923;28;20903;-70
2022/05/30 00:37:33;;;;;;;0.87;0.73;;;;;;;19.90;60.58;94429.25;5089770;28;20803;-67
2022/05/30 00:40:00;;;;;;;0.87;0.87;;;;;;;19.99;60.52;94435.28;5088387;28;21018;-72
2022/05/30 00:42:27;;;;;;;0.30;0.30;;;;;;;20.04;60.09;94429.75;5088050;28;20831;-71
2022/05/30 00:44:54;;;;;;;0.17;0.10;;;;;;;20.21;59.69;94432.31;5089795;28;20482;-68
2022/05/30 00:47:22;;;;;;;0.20;0.20;;;;;;;20.35;59.48;94440.00;5087354;28;20437;-67
2022/05/30 00:49:49;;;;;;;0.80;0.50;;;;;;;20.52;58.61;94443.28;5088916;28;20535;-66
2022/05/30 00:52:41;;;;;;;0.63;0.63;;;;;;;20.59;58.60;94438.22;5089682;28;20531;-69
2022/05/30 00:55:14;;;;;;;0.30;0.30;;;;;;;20.63;58.61;94448.97;5083138;28;20514;-66
2022/05/30 00:57:43;;;;;;;0.63;0.63;;;;;;;20.74;57.79;94442.91;5089772;28;20441;-66
2022/05/30 01:00:22;;;;;;;0.23;0.23;;;;;;;20.86;57.39;94448.25;5089278;28;20477;-70
2022/05/30 01:08:27;;;;;;;0.53;0.53;;;;;;;20.86;57.27;94440.28;5094164;28;20437;-67
2022/05/30 01:10:53;;;;;;;0.67;0.50;;;;;;;20.80;57.52;94438.91;5089343;28;21267;-64
2022/05/30 01:13:21;;;;;;;0.30;0.30;;;;;;;20.64;57.88;94435.34;5089572;28;20421;-67
2022/05/30 01:15:49;;;;;;;0.93;0.70;;;;;;;20.51;58.25;94441.72;5089622;28;20495;-70
2022/05/30 01:18:23;;;;;;;0.57;0.50;;;;;;;20.65;57.64;94436.91;5088052;28;20461;-68
2022/05/30 01:21:17;;;;;;;0.53;0.53;;;;;;;20.76;57.38;94446.03;5091378;28;20536;-67
2022/05/30 01:24:14;;;;;;;0.40;0.40;;;;;;;20.66;57.06;94443.00;5089552;28;20469;-65
2022/05/30 01:27:24;;;;;;;0.70;0.40;;;;;;;20.71;56.97;94451.53;5090854;28;20448;-67
2022/05/30 01:30:00;;;;;;;0.43;0.43;;;;;;;20.55;57.24;94442.63;5090030;28;20528;-67
2022/05/30 01:32:28;;;;;;;1.23;1.13;;;;;;;20.62;57.39;94453.53;5088322;28;20940;-68
2022/05/30 01:34:55;;;;;;;0.27;0.27;;;;;;;20.49;57.51;94449.25;5088248;28;20464;-68
2022/05/30 01:37:30;;;;;;;0.90;0.80;;;;;;;20.20;57.99;94452.03;5088198;28;20539;-63
2022/05/30 01:39:57;;;;;;;0.43;0.30;;;;;;;20.49;57.24;94453.81;5089241;28;20480;-66
2022/05/30 01:42:25;;;;;;;0.50;0.50;;;;;;;20.68;56.26;94446.88;5091953;28;20524;-69
2022/05/30 01:44:53;;;;;;;0.30;0.30;;;;;;;20.78;56.26;94457.09;5092939;28;20437;-72
2022/05/30 01:47:20;;;;;;;0.20;0.20;;;;;;;21.03;55.60;94447.31;5091883;28;20449;-67
2022/05/30 01:49:47;;;;;;;0.47;0.47;;;;;;;20.95;55.11;94435.63;5091697;28;20433;-67
2022/05/30 01:52:17;;;;;;;0.40;0.40;;;;;;;20.98;55.19;94445.59;5091482;28;21060;-67
2022/05/30 01:54:45;;;;;;;0.20;0.20;;;;;;;20.74;55.62;94453.56;5091594;28;21041;-72
2022/05/30 01:57:37;;;;;;;0.27;0.27;;;;;;;20.77;55.65;94442.25;5093098;28;20827;-65
2022/05/30 02:00:23;;;;;;;0.30;0.30;;;;;;;20.68;55.29;94462.06;5092698;28;20475;-69
2022/05/30 02:02:50;;;;;;;0.20;0.20;;;;;;;20.68;55.30;94454.09;5093067;28;20433;-69
2022/05/30 02:05:19;;;;;;;1.57;0.90;;;;;;;20.49;55.78;94459.91;5092498;28;20455;-65
2022/05/30 02:07:46;;;;;;;0.87;0.43;;;;;;;20.48;56.09;94470.88;5092580;28;20429;-65
2022/05/30 02:10:18;;;;;;;0.40;0.40;;;;;;;20.48;56.09;94470.88;5092721;28;20422;-63
2022/05/30 02:12:46;;;;;;;0.50;0.50;;;;;;;20.54;55.40;94473.03;5091014;28;20439;-63
2022/05/30 02:17:00;;;;;;;0.60;0.40;;;;;;;20.29;56.34;94476.66;5090921;28;20464;-65
2022/05/30 02:18:18;;;;;;;0.40;0.40;;;;;;;20.40;56.04;94480.50;5090665;28;20470;-67
2022/05/30 02:20:48;;;;;;;0.87;0.80;;;;;;;20.37;56.30;94486.47;5090918;28;20449;-70
2022/05/30 02:23:16;;;;;;;0.73;0.73;;;;;;;20.37;56.19;94478.50;5092639;28;20426;-65
2022/05/30 02:25:45;;;;;;;0.30;0.30;;;;;;;20.13;56.73;94479.13;5090598;28;20477;-65
2022/05/30 02:28:14;;;;;;;0.20;0.20;;;;;;;20.39;56.30;94484.28;5091038;28;20510;-64
2022/05/30 02:30:41;;;;;;;0.60;0.50;;;;;;;20.28;55.97;94487.66;5090800;28;20433;-67
2022/05/30 02:38:40;;;;;;;0.83;0.83;;;;;;;-140.05;100.00;61859.38;5092084;28;20453;-71
2022/05/30 02:41:44;;;;;;;0.57;0.57;;;;;;;-140.05;100.00;61859.38;5048696;28;20443;-69
2022/05/30 02:44:14;;;;;;;0.47;0.47;;;;;;;-140.05;100.00;61859.38;5080241;28;20972;-69
2022/05/30 02:46:41;;;;;;;0.30;0.30;;;;;;;-140.05;100.00;61859.38;5090937;28;20445;-65
2022/05/30 02:49:08;;;;;;;0.30;0.30;;;;;;;-140.05;100.00;61859.38;5090873;28;20532;-65
2022/05/30 02:51:37;;;;;;;0.40;0.40;;;;;;;-140.05;100.00;61859.38;5089918;28;21347;-64
2022/05/30 02:54:22;;;;;;;1.50;0.23;;;;;;;-140.05;100.00;61859.38;5090582;28;20516;-69
2022/05/30 02:56:54;;;;;;;0.50;0.40;;;;;;;-140.05;100.00;61859.38;5091547;28;20445;-67
2022/05/30 02:59:23;;;;;;;4.57;0.50;;;;;;;-140.05;100.00;61859.38;5090109;28;20485;-67
2022/05/30 03:01:59;;;;;;;0.23;0.17;;;;;;;-140.05;100.00;61859.38;5091643;28;20441;-69
2022/05/30 03:04:26;;;;;;;0.53;0.40;;;;;;;-140.05;100.00;61859.38;5089944;28;20476;-69
2022/05/30 03:06:53;;;;;;;1.03;0.53;;;;;;;-140.05;100.00;61859.38;5091413;28;20444;-63
2022/05/30 03:09:20;;;;;;;0.17;0.17;;;;;;;-140.05;100.00;61859.38;5090350;28;20840;-65
2022/05/30 03:12:12;;;;;;;0.50;0.50;;;;;;;-140.05;100.00;61859.38;5066884;28;20545;-66
2022/05/30 03:14:39;;;;;;;0.30;0.30;;;;;;;-140.05;100.00;61859.38;5091130;28;20437;-66
2022/05/30 03:17:08;;;;;;;0.20;0.20;;;;;;;-140.05;100.00;61859.38;5089992;28;20516;-72
2022/05/30 03:19:38;;;;;;;0.57;0.50;;;;;;;-140.05;100.00;61859.38;5089949;28;20473;-65
2022/05/30 03:22:04;;;;;;;0.37;0.37;;;;;;;-140.05;100.00;61859.38;5089168;28;20444;-68
2022/05/30 03:24:44;;;;;;;0.50;0.50;;;;;;;-140.05;100.00;61859.38;5089437;28;20480;-69
2022/05/30 03:27:14;;;;;;;0.80;0.77;;;;;;;-140.05;100.00;61859.38;5090040;28;20449;-72
2022/05/30 03:29:41;;;;;;;0.20;0.20;;;;;;;-140.05;100.00;61859.38;5089852;28;20440;-70
2022/05/30 03:32:09;;;;;;;1.47;1.20;;;;;;;-140.05;100.00;61859.38;5089756;28;20530;-69
2022/05/30 03:34:36;;;;;;;1.40;0.77;;;;;;;-140.05;100.00;61859.38;5091238;28;20447;-66
2022/05/30 03:37:03;;;;;;;0.70;0.70;;;;;;;-140.05;100.00;61859.38;5089777;28;20831;-65
2022/05/30 03:39:50;;;;;;;0.30;0.30;;;;;;;-140.05;100.00;61859.38;5088733;28;20485;-63
2022/05/30 03:42:46;;;;;;;0.70;0.43;;;;;;;-140.05;100.00;61859.38;5090805;28;20476;-66
2022/05/30 03:45:19;;;;;;;0.50;0.50;;;;;;;-140.05;100.00;61859.38;5089382;28;20471;-64
2022/05/30 03:47:48;;;;;;;1.17;1.07;;;;;;;-140.05;100.00;61859.38;5089206;28;20449;-65
2022/05/30 03:50:23;;;;;;;0.20;0.20;;;;;;;-140.05;100.00;61859.38;5090550;28;20441;-68
2022/05/30 03:53:04;;;;;;;0.37;0.37;;;;;;;-140.05;100.00;61859.38;5092238;28;20433;-64
2022/05/30 03:55:39;;;;;;;0.33;0.33;;;;;;;-140.05;100.00;61859.38;5089572;28;20667;-63
2022/05/30 03:58:07;;;;;;;0.70;0.60;;;;;;;-140.05;100.00;61859.38;5089052;28;20453;-65
2022/05/30 04:00:35;;;;;;;2.63;0.47;;;;;;;-140.05;100.00;61859.38;5087606;28;20571;-71
2022/05/30 04:03:05;;;;;;;0.37;0.37;;;;;;;-140.05;100.00;61859.38;5088332;28;20448;-62
2022/05/30 04:05:32;;;;;;;0.50;0.50;;;;;;;-140.05;100.00;61859.38;5090306;28;20496;-69
2022/05/30 04:07:59;;;;;;;1.80;1.33;;;;;;;-140.05;100.00;61859.38;5089584;28;20666;-67
2022/05/30 04:10:44;;;;;;;0.40;0.40;;;;;;;-140.05;100.00;61859.38;5089479;28;20486;-64
2022/05/30 04:13:32;;;;;;;0.43;0.43;;;;;;;-140.05;100.00;61859.38;5082541;28;20449;-68
2022/05/30 04:16:15;;;;;;;0.87;0.60;;;;;;;-140.05;100.00;61859.38;5088778;28;20448;-63
2022/05/30 04:18:44;;;;;;;0.40;0.40;;;;;;;-140.05;100.00;61859.38;5090246;28;20467;-66
2022/05/30 04:21:12;;;;;;;0.10;0.10;;;;;;;-140.05;100.00;61859.38;5088567;28;20437;-64
2022/05/30 04:23:41;;;;;;;0.33;0.33;;;;;;;-140.05;100.00;61859.38;5088106;28;20453;-64
2022/05/30 04:26:15;;;;;;;0.27;0.23;;;;;;;-140.05;100.00;61859.38;5089067;28;20866;-63
2022/05/30 04:28:46;;;;;;;0.50;0.50;;;;;;;-140.05;100.00;61859.38;5089032;28;20437;-63
2022/05/30 04:31:43;;;;;;;0.63;0.63;;;;;;;-140.05;100.00;61859.38;5088396;28;20456;-67
2022/05/30 04:34:12;;;;;;;0.30;0.30;;;;;;;-140.05;100.00;61859.38;5092373;28;20449;-67
2022/05/30 04:36:39;;;;;;;0.67;0.67;;;;;;;-140.05;100.00;61859.38;5095775;28;20437;-65
2022/05/30 04:39:06;;;;;;;0.87;0.87;;;;;;;-140.05;100.00;61859.38;5090536;28;20461;-63
2022/05/30 04:41:53;;;;;;;0.33;0.33;;;;;;;-140.05;100.00;61859.38;5068292;28;20452;-65
2022/05/30 04:44:32;;;;;;;1.23;0.87;;;;;;;-140.05;100.00;61859.38;5090050;28;20421;-68
2022/05/30 04:47:17;;;;;;;2.40;1.07;;;;;;;-140.05;100.00;61859.38;5089497;28;20525;-65
2022/05/30 04:49:48;;;;;;;3.53;2.23;;;;;;;-140.05;100.00;61859.38;5086884;28;20540;-68
2022/05/30 04:52:15;;;;;;;3.33;2.50;;;;;;;-140.05;100.00;61859.38;5088431;28;20437;-68
2022/05/30 04:54:43;;;;;;;0.87;0.87;;;;;;;-140.05;100.00;61859.38;5088512;28;20457;-67
2022/05/30 04:57:43;;;;;;;0.50;0.50;;;;;;;-140.05;100.00;61859.38;5088397;28;20506;-68
2022/05/30 05:00:30;;;;;;;1.50;0.50;;;;;;;-140.05;100.00;61859.38;5078780;28;20583;-72
2022/05/30 05:02:58;;;;;;;2.13;1.93;;;;;;;-140.05;100.00;61859.38;5088763;28;20442;-66
2022/05/30 05:05:25;;;;;;;3.60;2.83;;;;;;;-140.05;100.00;61859.38;5088434;28;20430;-66
2022/05/30 05:08:19;;;;;;;2.07;1.77;;;;;;;-140.05;100.00;61859.38;5088222;28;20454;-63
2022/05/30 05:11:15;;;;;;;1.03;0.93;;;;;;;-140.05;100.00;61859.38;5089673;28;20494;-71
2022/05/30 05:14:13;;;;;;;1.23;0.73;;;;;;;-140.05;100.00;61859.38;5052134;28;20450;-66
2022/05/30 05:16:58;;;;;;;0.50;0.50;;;;;;;-140.05;100.00;61859.38;5094075;28;20424;-65
2022/05/30 05:19:25;;;;;;;0.53;0.53;;;;;;;-140.05;100.00;61859.38;5092531;28;20564;-69
2022/05/30 05:21:52;;;;;;;1.80;1.43;;;;;;;-140.05;100.00;61859.38;5091413;28;20815;-70
2022/05/30 05:24:20;;;;;;;0.90;0.90;;;;;;;-140.05;100.00;61859.38;5091830;28;20480;-68
2022/05/30 05:27:09;;;;;;;1.70;1.23;;;;;;;-140.05;100.00;61859.38;5093369;28;20444;-69
2022/05/30 05:29:38;;;;;;;0.70;0.70;;;;;;;-140.05;100.00;61859.38;5092201;28;20441;-63
2022/05/30 05:32:07;;;;;;;0.50;0.50;;;;;;;-140.05;100.00;61859.38;5091785;28;20477;-65
2022/05/30 05:34:33;;;;;;;0.80;0.80;;;;;;;-140.05;100.00;61859.38;5092348;28;20502;-65
2022/05/30 05:37:00;;;;;;;2.97;1.63;;;;;;;-140.05;100.00;61859.38;5089587;28;20536;-65
2022/05/30 05:39:31;;;;;;;1.37;1.00;;;;;;;-140.05;100.00;61859.38;5089643;28;20574;-64
2022/05/30 05:42:01;;;;;;;0.97;0.90;;;;;;;-140.05;100.00;61859.38;5090061;28;20453;-65
2022/05/30 05:44:28;;;;;;;0.60;0.60;;;;;;;-140.05;100.00;61859.38;5092444;28;20429;-64
2022/05/30 05:46:58;;;;;;;0.70;0.70;;;;;;;-140.05;100.00;61859.38;5091728;28;20506;-67
2022/05/30 05:49:30;;;;;;;2.00;0.90;;;;;;;-140.05;100.00;61859.38;5091630;28;20765;-65
2022/05/30 05:51:57;;;;;;;0.80;0.70;;;;;;;-140.05;100.00;61859.38;5091449;28;20441;-70
2022/05/30 05:54:26;;;;;;;0.83;0.83;;;;;;;-140.05;100.00;61859.38;5091753;28;20440;-68
2022/05/30 05:56:56;;;;;;;1.17;1.07;;;;;;;-140.05;100.00;61859.38;5091343;28;20832;-68
2022/05/30 05:59:38;;;;;;;1.50;0.87;;;;;;;-140.05;100.00;61859.38;5091364;28;20226;-68
2022/05/30 06:02:06;;;;;;;2.17;0.97;;;;;;;-140.05;100.00;61859.38;5090742;28;20439;-68
2022/05/30 06:04:34;;;;;;;1.17;0.97;;;;;;;-140.05;100.00;61859.38;5091260;28;20433;-65
2022/05/30 06:07:06;;;;;;;0.80;0.80;;;;;;;-140.05;100.00;61859.38;5092574;28;20527;-63
2022/05/30 06:09:56;;;;;;;2.03;1.27;;;;;;;-140.05;100.00;61859.38;5082160;28;20460;-64
2022/05/30 06:12:36;;;;;;;0.93;0.93;;;;;;;-140.05;100.00;61859.38;5091730;28;20971;-68
2022/05/30 06:15:05;;;;;;;1.27;1.17;;;;;;;-140.05;100.00;61859.38;5091344;28;20445;-65
2022/05/30 06:17:40;;;;;;;2.13;0.77;;;;;;;-140.05;100.00;61859.38;5091353;28;20989;-64
2022/05/30 06:20:09;;;;;;;0.80;0.80;;;;;;;-140.05;100.00;61859.38;5092728;28;20207;-62
2022/05/30 06:22:37;;;;;;;0.80;0.80;;;;;;;-140.05;100.00;61859.38;5091429;28;20975;-69
2022/05/30 06:25:15;;;;;;;0.93;0.60;;;;;;;-140.05;100.00;61859.38;5091179;28;20481;-66
2022/05/30 06:28:03;;;;;;;0.43;0.43;;;;;;;-140.05;100.00;61859.38;5090839;28;20433;-67
2022/05/30 06:30:40;;;;;;;2.50;1.33;;;;;;;-140.05;100.00;61859.38;5091194;28;20236;-66
2022/05/30 06:33:06;;;;;;;1.43;1.30;;;;;;;-140.05;100.00;61859.38;5090985;28;20444;-66
2022/05/30 06:35:47;;;;;;;0.43;0.43;;;;;;;-140.05;100.00;61859.38;5090937;28;20500;-69
2022/05/30 06:38:16;;;;;;;1.50;1.37;;;;;;;-140.05;100.00;61859.38;5092326;28;20211;-69
2022/05/30 06:40:55;;;;;;;1.17;0.90;;;;;;;-140.05;100.00;61859.38;5094345;28;20488;-69
2022/05/30 06:43:27;;;;;;;1.00;0.93;;;;;;;-140.05;100.00;61859.38;5092816;28;20444;-66
2022/05/30 06:46:20;;;;;;;1.07;0.87;;;;;;;-140.05;100.00;61859.38;5069095;28;20476;-66
2022/05/30 06:49:08;;;;;;;1.87;0.80;;;;;;;-140.05;100.00;61859.38;5070411;28;20211;-71
2022/05/30 06:51:46;;;;;;;0.97;0.97;;;;;;;-140.05;100.00;61859.38;5090919;28;20207;-67
2022/05/30 06:54:14;;;;;;;1.60;1.50;;;;;;;-140.05;100.00;61859.38;5090944;28;20704;-68
2022/05/30 06:59:30;;;;;;;0.50;0.50;;;;;;;-140.05;100.00;61859.38;5090461;28;20203;-65
2022/05/30 07:02:00;;;;;;;1.10;1.00;;;;;;;-140.05;100.00;61859.38;5090289;28;20461;-70
2022/05/30 07:04:59;;;;;;;0.97;0.93;;;;;;;-140.05;100.00;61859.38;5057143;28;20246;-63
2022/05/30 07:07:46;;;;;;;1.00;1.00;;;;;;;-140.05;100.00;61859.38;5091970;28;20594;-67
2022/05/30 07:10:37;;;;;;;1.77;0.93;;;;;;;-140.05;100.00;61859.38;5090213;28;20203;-66
2022/05/30 07:13:23;;;;;;;0.50;0.50;;;;;;;-140.05;100.00;61859.38;5090189;28;20199;-65
2022/05/30 07:15:51;;;;;;;0.53;0.53;;;;;;;-140.05;100.00;61859.38;5073860;28;20203;-67
2022/05/30 07:18:30;;;;;;;0.53;0.53;;;;;;;-140.05;100.00;61859.38;5090035;28;20222;-67
2022/05/30 07:21:00;;;;;;;0.50;0.47;;;;;;;-140.05;100.00;61859.38;5090102;28;20229;-66
2022/05/30 07:23:28;;;;;;;0.50;0.50;;;;;;;-140.05;100.00;61859.38;5098933;28;20199;-68
2022/05/30 07:26:19;;;;;;;0.57;0.57;;;;;;;-140.05;100.00;61859.38;5097670;28;20209;-63
2022/05/30 07:29:08;;;;;;;1.63;1.10;;;;;;;-140.05;100.00;61859.38;5080080;28;20207;-64
2022/05/30 07:32:01;;;;;;;1.43;1.03;;;;;;;-140.05;100.00;61859.38;5091255;28;20558;-67
2022/05/30 07:34:46;;;;;;;3.13;1.90;;;;;;;-140.05;100.00;61859.38;5090862;28;20272;-70
2022/05/30 07:37:29;;;;;;;0.93;0.93;;;;;;;-140.05;100.00;61859.38;5090980;28;20207;-68
2022/05/30 07:40:22;;;;;;;1.00;0.93;;;;;;;-140.05;100.00;61859.38;5089721;28;20575;-65
2022/05/30 07:43:19;;;;;;;0.70;0.70;;;;;;;-140.05;100.00;61859.38;5089722;28;20207;-68
2022/05/30 07:46:01;;;;;;;0.70;0.70;;;;;;;-140.05;100.00;61859.38;5090998;28;20211;-67
2022/05/30 07:48:48;;;;;;;3.10;1.37;;;;;;;-140.05;100.00;61859.38;5090597;28;20205;-68
2022/05/30 07:51:33;;;;;;;1.33;0.60;;;;;;;-140.05;100.00;61859.38;5092930;28;20290;-64
2022/05/30 07:54:13;;;;;;;1.10;0.77;;;;;;;-140.05;100.00;61859.38;5096458;28;20261;-67
2022/05/30 07:56:58;;;;;;;0.97;0.60;;;;;;;-140.05;100.00;61859.38;5091211;28;20674;-73
2022/05/30 07:59:27;;;;;;;0.77;0.77;;;;;;;-140.05;100.00;61859.38;5089310;28;20609;-69
2022/05/30 08:01:56;;;;;;;0.60;0.60;;;;;;;-140.05;100.00;61859.38;5089207;28;20234;-68
2022/05/30 08:04:24;;;;;;;0.87;0.73;;;;;;;-140.05;100.00;61859.38;5089234;28;20199;-72
2022/05/30 08:06:57;;;;;;;1.47;1.37;;;;;;;-140.05;100.00;61859.38;5090670;28;20203;-68
2022/05/30 08:09:42;;;;;;;0.60;0.60;;;;;;;-140.05;100.00;61859.38;5090200;28;20683;-68
2022/05/30 08:12:12;;;;;;;2.60;1.77;;;;;;;-140.05;100.00;61859.38;5089176;28;20221;-66
2022/05/30 08:15:03;;;;;;;1.33;1.23;;;;;;;-140.05;100.00;61859.38;5084435;28;20214;-70
2022/05/30 08:17:55;;;;;;;4.73;1.53;;;;;;;-140.05;100.00;61859.38;5081791;28;20222;-68
2022/05/30 08:20:27;;;;;;;1.13;0.87;;;;;;;-140.05;100.00;61859.38;5088583;28;20246;-69
2022/05/30 08:22:55;;;;;;;0.97;0.97;;;;;;;-140.05;100.00;61859.38;5090346;28;20194;-72
2022/05/30 08:25:23;;;;;;;4.87;2.23;;;;;;;-140.05;100.00;61859.38;5089189;28;20234;-63
2022/05/30 08:27:50;;;;;;;2.30;1.83;;;;;;;-140.05;100.00;61859.38;5090190;28;20566;-67
2022/05/30 08:30:19;;;;;;;0.73;0.73;;;;;;;-140.05;100.00;61859.38;5088765;28;20195;-69
2022/05/30 08:33:23;;;;;;;1.17;1.03;;;;;;;-140.05;100.00;61859.38;5047530;28;20390;-70
2022/05/30 08:36:10;;;;;;;0.83;0.83;;;;;;;-140.05;100.00;61859.38;5087292;28;20712;-68
2022/05/30 08:38:39;;;;;;;1.10;0.67;;;;;;;-140.05;100.00;61859.38;5088598;28;20222;-63
2022/05/30 08:44:06;;;;;;;2.53;0.73;;;;;;;-140.05;100.00;61859.38;5088857;28;20322;-70
2022/05/30 08:47:01;;;;;;;0.40;0.40;;;;;;;-140.05;100.00;61859.38;5061069;28;20237;-67
2022/05/30 08:49:47;;;;;;;0.47;0.47;;;;;;;-140.05;100.00;61859.38;5088120;28;20673;-67
2022/05/30 08:52:25;;;;;;;1.80;0.63;;;;;;;-140.05;100.00;61859.38;5088716;28;20229;-68
2022/05/30 08:55:11;;;;;;;0.80;0.80;;;;;;;-140.05;100.00;61859.38;5090307;28;20191;-69
2022/05/30 08:58:03;;;;;;;0.90;0.90;;;;;;;-140.05;100.00;61859.38;5090470;28;20272;-68
2022/05/30 09:00:56;;;;;;;0.60;0.50;;;;;;;-140.05;100.00;61859.38;5051004;28;20348;-69
2022/05/30 09:04:11;;;;;;;0.60;0.60;;;;;;;-140.05;100.00;61859.38;5089678;28;20206;-64
2022/05/30 09:06:49;;;;;;;0.70;0.70;;;;;;;-140.05;100.00;61859.38;5088277;28;20203;-65
2022/05/30 09:09:37;;;;;;;0.57;0.57;;;;;;;-140.05;100.00;61859.38;5088368;28;20282;-62
2022/05/30 09:12:39;;;;;;;0.50;0.50;;;;;;;-140.05;100.00;61859.38;5088463;28;20209;-65
2022/05/30 09:15:27;;;;;;;0.30;0.30;;;;;;;-140.05;100.00;61859.38;5088483;28;20198;-66
2022/05/30 09:18:44;;;;;;;0.30;0.30;;;;;;;-140.05;100.00;61859.38;5088417;28;20210;-61
2022/05/30 09:21:18;;;;;;;2.10;1.70;;;;;;;-140.05;100.00;61859.38;5065182;28;20668;-68
2022/05/30 09:23:48;;;;;;;1.23;1.00;;;;;;;-140.05;100.00;61859.38;5088150;28;20289;-63
2022/05/30 09:26:33;;;;;;;0.80;0.80;;;;;;;-140.05;100.00;61859.38;5088515;28;20199;-66
2022/05/30 09:29:29;;;;;;;1.53;1.30;;;;;;;-140.05;100.00;61859.38;5088303;28;20207;-67
2022/05/30 09:32:38;;;;;;;0.40;0.40;;;;;;;-140.05;100.00;61859.38;5089919;28;20210;-66
2022/05/30 09:35:33;;;;;;;0.63;0.63;;;;;;;-140.05;100.00;61859.38;5089884;28;20248;-63
2022/05/30 09:38:22;;;;;;;0.80;0.80;;;;;;;-140.05;100.00;61859.38;5089681;28;20202;-65
2022/05/30 09:41:24;;;;;;;1.73;1.00;;;;;;;-140.05;100.00;61859.38;5087768;28;20229;-64
2022/05/30 09:44:04;;;;;;;0.37;0.37;;;;;;;-140.05;100.00;61859.38;5088190;28;20226;-66
2022/05/30 09:46:42;;;;;;;1.13;0.93;;;;;;;-140.05;100.00;61859.38;5088334;28;20221;-67
2022/05/30 09:49:37;;;;;;;1.73;1.00;;;;;;;-140.05;100.00;61859.38;5089198;28;20190;-65
2022/05/30 09:52:33;;;;;;;0.77;0.70;;;;;;;-140.05;100.00;61859.38;5088043;28;20682;-64
2022/05/30 09:55:26;;;;;;;0.67;0.67;;;;;;;-140.05;100.00;61859.38;5087912;28;20211;-65
2022/05/30 09:58:05;;;;;;;1.37;1.07;;;;;;;-140.05;100.00;61859.38;5087819;28;20194;-65
2022/05/30 10:00:53;;;;;;;0.73;0.67;;;;;;;-140.05;100.00;61859.38;5087616;28;20230;-65
2022/05/30 10:03:32;;;;;;;0.90;0.87;;;;;;;-140.05;100.00;61859.38;5091214;28;20741;-66
2022/05/30 10:06:23;;;;;;;0.73;0.73;;;;;;;-140.05;100.00;61859.38;5050869;28;20287;-70
2022/05/30 10:09:27;;;;;;;0.90;0.90;;;;;;;-140.05;100.00;61859.38;5091753;28;20239;-66
2022/05/30 10:12:05;;;;;;;0.40;0.40;;;;;;;-140.05;100.00;61859.38;5076427;28;20195;-65
2022/05/30 10:14:34;;;;;;;0.60;0.60;;;;;;;-140.05;100.00;61859.38;5091694;28;20624;-66
2022/05/30 10:17:31;;;;;;;0.83;0.77;;;;;;;-140.05;100.00;61859.38;5092925;28;20215;-69
2022/05/30 10:20:08;;;;;;;1.53;1.43;;;;;;;-140.05;100.00;61859.38;5090256;28;20805;-65
2022/05/30 10:30:42;;;;;;;0.63;0.63;;;;;;;-140.05;100.00;61859.38;5072303;28;20566;-65
2022/05/30 10:33:57;;;;;;;0.60;0.60;;;;;;;-140.05;100.00;61859.38;5090956;28;20738;-66
2022/05/30 10:36:50;;;;;;;1.23;1.13;;;;;;;-140.05;100.00;61859.38;5090768;28;20289;-63
2022/05/30 10:40:02;;;;;;;0.77;0.77;;;;;;;-140.05;100.00;61859.38;5089902;28;20219;-66
2022/05/30 10:42:52;;;;;;;0.70;0.70;;;;;;;-140.05;100.00;61859.38;5090179;28;20227;-63
2022/05/30 10:45:49;;;;;;;0.40;0.40;;;;;;;-140.05;100.00;61859.38;5091001;28;20204;-66
2022/05/30 10:48:31;;;;;;;0.60;0.60;;;;;;;-140.05;100.00;61859.38;5090884;28;20234;-65
2022/05/30 10:51:08;;;;;;;0.97;0.67;;;;;;;-140.05;100.00;61859.38;5090615;28;20603;-66
2022/05/30 10:53:38;;;;;;;0.60;0.47;;;;;;;-140.05;100.00;61859.38;5092880;28;20585;-65
2022/05/30 10:56:32;;;;;;;1.13;0.77;;;;;;;-140.05;100.00;61859.38;5093279;28;20206;-65
2022/05/30 10:59:27;;;;;;;1.20;0.97;;;;;;;-140.05;100.00;61859.38;5091687;28;20218;-65
2022/05/30 11:02:22;;;;;;;0.70;0.70;;;;;;;-140.05;100.00;61859.38;5090859;28;20246;-68
2022/05/30 11:04:58;;;;;;;0.47;0.47;;;;;;;-140.05;100.00;61859.38;5088050;28;20195;-64
2022/05/30 11:07:38;;;;;;;1.10;1.00;;;;;;;-140.05;100.00;61859.38;5092160;28;20199;-65
2022/05/30 11:10:21;;;;;;;1.27;1.17;;;;;;;-140.05;100.00;61859.38;5092056;28;20194;-65
2022/05/30 11:13:01;;;;;;;0.80;0.80;;;;;;;-140.05;100.00;61859.38;5089336;28;20251;-66
2022/05/30 11:15:36;;;;;;;0.77;0.70;;;;;;;-140.05;100.00;61859.38;5102806;28;20206;-68
2022/05/30 11:18:51;;;;;;;0.40;0.40;;;;;;;-140.05;100.00;61859.38;5111511;28;20185;-66
2022/05/30 11:22:02;;;;;;;0.77;0.73;;;;;;;-140.05;100.00;61859.38;5111616;28;20747;-63
2022/05/30 11:24:31;;;;;;;0.50;0.50;;;;;;;-140.05;100.00;61859.38;5109771;28;20241;-67
2022/05/30 11:27:22;;;;;;;1.03;0.60;;;;;;;-140.05;100.00;61859.38;5111060;28;20182;-67
2022/05/30 11:29:55;;;;;;;1.00;0.83;;;;;;;-140.05;100.00;61859.38;5089666;28;20867;-70
2022/05/30 11:32:51;;;;;;;2.73;0.93;;;;;;;-140.05;100.00;61859.38;5090304;28;20272;-70
2022/05/30 11:35:34;;;;;;;0.60;0.60;;;;;;;-140.05;100.00;61859.38;5070803;28;20204;-66
2022/05/30 11:38:16;;;;;;;1.47;1.30;;;;;;;-140.05;100.00;61859.38;5090192;28;20298;-64
2022/05/30 11:41:25;;;;;;;1.00;0.90;;;;;;;-140.05;100.00;61859.38;5091242;28;20324;-72
2022/05/30 11:44:13;;;;;;;0.40;0.40;;;;;;;-140.05;100.00;61859.38;5071136;28;20258;-69
2022/05/30 11:47:10;;;;;;;1.40;1.13;;;;;;;-140.05;100.00;61859.38;5090920;28;20226;-67
2022/05/30 11:50:07;;;;;;;0.63;0.50;;;;;;;-140.05;100.00;61859.38;5090792;28;20199;-69
2022/05/30 11:52:58;;;;;;;1.13;1.03;;;;;;;-140.05;100.00;61859.38;5082571;28;20207;-60
2022/05/30 11:55:41;;;;;;;0.93;0.73;;;;;;;-140.05;100.00;61859.38;5091399;28;20201;-63
2022/05/30 11:58:15;;;;;;;2.27;1.53;;;;;;;-140.05;100.00;61859.38;5090966;28;20281;-67
2022/05/30 12:00:47;;;;;;;2.77;1.13;;;;;;;-140.05;100.00;61859.38;5090186;28;20202;-66
2022/05/30 12:03:24;;;;;;;0.80;0.80;;;;;;;-140.05;100.00;61859.38;5090547;28;20558;-68
2022/05/30 12:06:10;;;;;;;0.50;0.50;;;;;;;-140.05;100.00;61859.38;5089886;28;20210;-66
2022/05/30 12:09:04;;;;;;;0.57;0.57;;;;;;;-140.05;100.00;61859.38;5089837;28;20677;-65
2022/05/30 12:11:43;;;;;;;0.60;0.60;;;;;;;-140.05;100.00;61859.38;5089960;28;20734;-68
2022/05/30 12:14:25;;;;;;;0.60;0.60;;;;;;;-140.05;100.00;61859.38;5090169;28;20195;-69
2022/05/30 12:17:34;;;;;;;1.30;1.20;;;;;;;-140.05;100.00;61859.38;5090158;28;20213;-69
2022/05/30 12:25:55;;;;;;;0.80;0.80;;;;;;;-140.05;100.00;61859.38;5089684;28;20580;-70
2022/05/30 12:28:29;;;;;;;0.87;0.70;;;;;;;-140.05;100.00;61859.38;5090139;28;20191;-66
2022/05/30 12:31:03;;;;;;;0.67;0.60;;;;;;;-140.05;100.00;61859.38;5090121;28;20214;-69
2022/05/30 12:33:30;;;;;;;0.63;0.63;;;;;;;-140.05;100.00;61859.38;5090230;28;20253;-66
2022/05/30 12:36:05;;;;;;;0.63;0.63;;;;;;;-140.05;100.00;61859.38;5089620;28;20183;-65